Time;durP1;ratioP1;P1;durP2;ratioP2;P2;SDS_P1;SDS_P2;PMS_P1;PMS_P2;Temp;Humidity;BMP_temperature;BMP_pressure;BME280_temperature;BME280_humidity;BME280_pressure;Samples;Min_cycle;Max_cycle;Signal;HPM_P1;HPM_P2
2022/03/13 00:00:26;;;;;;;30.88;18.40;;;;;;;1.10;67.83;101322.14;1769908;79;21086;-53
2022/03/13 00:02:55;;;;;;;37.58;20.40;;;;;;;1.11;67.91;101319.97;1698042;80;21298;-52
2022/03/13 00:05:22;;;;;;;38.50;21.23;;;;;;;1.10;67.93;101329.46;1748571;80;21114;-52
2022/03/13 00:07:51;;;;;;;43.52;24.75;;;;;;;1.08;67.95;101327.36;1766129;80;21015;-53
2022/03/13 00:10:19;;;;;;;37.42;21.48;;;;;;;1.08;67.93;101323.47;1746516;80;21066;-52
2022/03/13 00:12:48;;;;;;;35.23;22.37;;;;;;;1.08;67.90;101326.52;1761879;79;21520;-53
2022/03/13 00:15:16;;;;;;;36.77;20.43;;;;;;;1.08;67.90;101321.33;1748664;80;21264;-53
2022/03/13 00:17:44;;;;;;;42.38;23.15;;;;;;;1.08;67.82;101319.59;1751392;80;21464;-53
2022/03/13 00:20:12;;;;;;;55.17;27.70;;;;;;;1.09;67.77;101317.41;1758331;80;21563;-53
2022/03/13 00:22:39;;;;;;;49.15;27.90;;;;;;;1.11;67.62;101314.78;1765523;79;21058;-53
2022/03/13 00:25:10;;;;;;;50.80;31.45;;;;;;;1.11;67.54;101319.97;1762225;80;21035;-52
2022/03/13 00:27:39;;;;;;;57.55;32.17;;;;;;;1.13;67.51;101321.19;1753797;79;21231;-52
2022/03/13 00:30:07;;;;;;;65.12;37.90;;;;;;;1.11;67.45;101318.22;1758757;80;21102;-52
2022/03/13 00:32:34;;;;;;;75.40;41.00;;;;;;;1.14;67.39;101313.83;1760863;79;21782;-53
2022/03/13 00:35:01;;;;;;;70.83;41.08;;;;;;;1.13;67.33;101316.88;1753994;80;21440;-53
2022/03/13 00:37:28;;;;;;;80.12;47.30;;;;;;;1.13;67.26;101320.77;1747336;80;21098;-52
2022/03/13 00:39:56;;;;;;;68.92;44.23;;;;;;;1.14;67.33;101317.27;1757179;80;21078;-53
2022/03/13 00:42:24;;;;;;;78.37;43.42;;;;;;;1.12;67.34;101320.35;1763320;79;21074;-53
2022/03/13 00:44:50;;;;;;;73.33;43.58;;;;;;;1.10;67.45;101320.39;1774913;79;21042;-52
2022/03/13 00:47:19;;;;;;;85.40;47.10;;;;;;;1.13;67.48;101323.78;1770694;79;21284;-53
2022/03/13 00:49:47;;;;;;;73.00;39.67;;;;;;;1.14;67.47;101328.94;1775280;79;21046;-52
2022/03/13 00:52:14;;;;;;;62.30;37.80;;;;;;;1.15;67.44;101327.21;1778332;80;21777;-52
2022/03/13 00:54:41;;;;;;;59.85;34.73;;;;;;;1.17;67.39;101328.86;1771873;79;21039;-52
2022/03/13 00:57:08;;;;;;;58.05;33.25;;;;;;;1.18;67.44;101329.28;1770905;79;21106;-52
2022/03/13 00:59:34;;;;;;;47.60;28.10;;;;;;;1.19;67.36;101330.96;1774973;79;21094;-52
2022/03/13 01:02:01;;;;;;;54.48;30.25;;;;;;;1.17;67.37;101330.16;1770897;79;21160;-53
2022/03/13 01:04:28;;;;;;;41.30;23.10;;;;;;;1.16;67.39;101333.66;1767954;80;21144;-53
2022/03/13 01:06:55;;;;;;;36.17;22.00;;;;;;;1.17;67.42;101332.75;1768913;79;21063;-53
2022/03/13 01:09:22;;;;;;;33.15;16.70;;;;;;;1.14;67.34;101328.94;1772209;80;21031;-52
2022/03/13 01:11:48;;;;;;;25.80;16.65;;;;;;;1.15;67.43;101334.53;1765639;79;22205;-52
2022/03/13 01:14:16;;;;;;;28.98;16.42;;;;;;;1.10;67.35;101333.80;1759725;79;21017;-52
2022/03/13 01:16:44;;;;;;;21.95;13.08;;;;;;;1.14;67.39;101326.80;1743448;79;21184;-53
2022/03/13 01:19:11;;;;;;;22.52;12.55;;;;;;;1.15;67.40;101333.70;1761270;79;21023;-52
2022/03/13 01:21:41;;;;;;;21.25;11.38;;;;;;;1.19;67.32;101334.84;1768254;79;21843;-52
2022/03/13 01:24:16;;;;;;;21.37;11.25;;;;;;;1.22;67.17;101331.34;1771077;79;21092;-53
2022/03/13 01:26:49;;;;;;;17.52;10.40;;;;;;;1.24;67.08;101339.47;1765003;79;21051;-53
2022/03/13 01:29:17;;;;;;;20.00;10.80;;;;;;;1.23;67.08;101342.13;1768998;79;21202;-53
2022/03/13 01:31:45;;;;;;;21.70;10.80;;;;;;;1.24;66.97;101342.52;1773369;79;21090;-52
2022/03/13 01:34:43;;;;;;;18.23;9.90;;;;;;;1.21;66.99;101338.28;1770465;79;21041;-53
2022/03/13 01:37:29;;;;;;;23.10;12.33;;;;;;;1.23;66.95;101344.27;1724360;79;21503;-51
2022/03/13 01:39:59;;;;;;;24.32;13.72;;;;;;;1.21;67.00;101343.89;1773059;79;21143;-52
2022/03/13 01:42:26;;;;;;;29.10;16.20;;;;;;;1.19;66.83;101345.22;1775583;79;21188;-52
2022/03/13 01:44:54;;;;;;;34.80;18.42;;;;;;;1.20;66.83;101343.50;1767874;79;21054;-52
2022/03/13 01:47:23;;;;;;;29.67;17.62;;;;;;;1.20;66.69;101345.64;1767986;79;21054;-52
2022/03/13 01:49:51;;;;;;;31.23;17.07;;;;;;;1.22;66.55;101352.08;1773240;79;21028;-52
2022/03/13 01:52:25;;;;;;;35.35;19.05;;;;;;;1.21;66.52;101352.54;1778002;79;21091;-52
2022/03/13 01:54:55;;;;;;;28.95;17.65;;;;;;;1.21;66.49;101357.72;1761002;80;21893;-52
2022/03/13 01:57:21;;;;;;;35.48;20.77;;;;;;;1.21;66.32;101361.61;1777911;79;21070;-53
2022/03/13 01:59:53;;;;;;;25.12;16.87;;;;;;;1.18;66.34;101358.22;1767324;79;20999;-53
2022/03/13 02:02:22;;;;;;;31.33;19.15;;;;;;;1.14;66.12;101353.56;1772560;80;22058;-52
2022/03/13 02:04:52;;;;;;;25.55;15.35;;;;;;;1.14;66.04;101350.97;1765358;79;21411;-52
2022/03/13 02:07:24;;;;;;;28.07;16.27;;;;;;;1.15;65.87;101366.09;1765970;79;21159;-52
2022/03/13 02:09:51;;;;;;;23.90;15.50;;;;;;;1.14;65.89;101363.09;1766326;79;21015;-52
2022/03/13 02:12:20;;;;;;;25.55;15.70;;;;;;;1.13;65.80;101368.73;1766909;79;21636;-52
2022/03/13 02:14:47;;;;;;;26.65;14.15;;;;;;;1.15;65.64;101366.94;1756856;79;21046;-52
2022/03/13 02:17:27;;;;;;;21.45;13.22;;;;;;;1.17;65.56;101370.34;1770277;79;20991;-52
2022/03/13 02:19:56;;;;;;;26.97;14.10;;;;;;;1.16;65.42;101366.06;1762930;79;21027;-52
2022/03/13 02:22:23;;;;;;;22.13;12.55;;;;;;;1.14;65.36;101367.81;1773597;79;21065;-52
2022/03/13 02:24:54;;;;;;;18.62;12.30;;;;;;;1.09;65.32;101368.38;1763544;79;21030;-52
2022/03/13 02:27:24;;;;;;;21.65;11.97;;;;;;;1.06;65.48;101372.34;1773379;79;21511;-52
2022/03/13 02:29:52;;;;;;;20.17;11.28;;;;;;;1.02;65.50;101372.02;1777086;79;21042;-52
2022/03/13 02:32:19;;;;;;;18.37;10.55;;;;;;;1.03;65.52;101370.69;1771963;79;21102;-52
2022/03/13 02:34:47;;;;;;;21.57;12.18;;;;;;;0.98;65.45;101380.77;1783620;79;21019;-52
2022/03/13 02:37:37;;;;;;;17.17;9.23;;;;;;;0.96;65.65;101383.82;1767464;79;21078;-52
2022/03/13 02:40:05;;;;;;;15.28;8.78;;;;;;;0.93;65.75;101388.20;1730017;80;21102;-52
2022/03/13 02:42:34;;;;;;;15.72;9.40;;;;;;;0.89;65.84;101394.35;1769118;79;21023;-53
2022/03/13 02:45:02;;;;;;;15.58;8.98;;;;;;;0.88;65.97;101386.16;1769501;80;21108;-53
2022/03/13 02:47:28;;;;;;;17.80;10.30;;;;;;;0.88;65.94;101393.09;1755973;80;21151;-52
2022/03/13 02:49:55;;;;;;;15.80;8.78;;;;;;;0.88;66.02;101397.82;1762885;79;21053;-52
2022/03/13 02:52:22;;;;;;;14.63;7.95;;;;;;;0.89;66.04;101385.28;1767203;80;21046;-52
2022/03/13 02:54:49;;;;;;;12.20;8.83;;;;;;;0.93;66.05;101401.16;1763027;79;21051;-53
2022/03/13 02:57:15;;;;;;;17.35;8.33;;;;;;;0.93;65.99;101393.83;1771612;80;21134;-53
2022/03/13 02:59:42;;;;;;;17.65;9.73;;;;;;;0.97;65.95;101402.38;1764808;79;21090;-53
2022/03/13 03:02:11;;;;;;;15.95;8.95;;;;;;;0.95;65.99;101410.64;1772616;79;21526;-52
2022/03/13 03:04:37;;;;;;;17.02;8.13;;;;;;;0.95;65.98;101418.42;1777526;79;21058;-52
2022/03/13 03:07:05;;;;;;;13.30;7.55;;;;;;;0.95;66.06;101418.42;1764843;79;21634;-53
2022/03/13 03:09:33;;;;;;;17.70;8.45;;;;;;;0.97;65.89;101415.34;1764518;79;21058;-53
2022/03/13 03:12:04;;;;;;;12.85;8.75;;;;;;;0.93;65.92;101415.41;1771919;79;21115;-52
2022/03/13 03:14:31;;;;;;;13.95;8.08;;;;;;;0.92;65.98;101410.26;1764999;80;21484;-53
2022/03/13 03:16:58;;;;;;;14.40;8.65;;;;;;;0.91;65.94;101419.78;1766129;79;20988;-53
2022/03/13 03:19:25;;;;;;;14.45;7.58;;;;;;;0.88;65.97;101415.96;1766332;79;21034;-52
2022/03/13 03:21:54;;;;;;;13.03;7.28;;;;;;;0.88;66.09;101420.30;1767443;80;22080;-52
2022/03/13 03:24:23;;;;;;;13.00;7.97;;;;;;;0.89;66.04;101424.16;1760216;79;21053;-52
2022/03/13 03:26:51;;;;;;;12.88;6.97;;;;;;;0.89;66.06;101421.56;1768670;80;22234;-52
2022/03/13 03:29:17;;;;;;;11.90;6.78;;;;;;;0.86;65.92;101422.08;1760752;79;21085;-52
2022/03/13 03:31:46;;;;;;;11.50;6.53;;;;;;;0.86;66.00;101433.29;1762791;79;21110;-52
2022/03/13 03:34:18;;;;;;;9.30;6.95;;;;;;;0.86;65.89;101437.17;1767472;79;21047;-52
2022/03/13 03:36:58;;;;;;;11.40;6.33;;;;;;;0.88;65.78;101438.44;1760991;79;21500;-52
2022/03/13 03:39:27;;;;;;;11.05;6.30;;;;;;;0.86;65.64;101436.33;1765057;79;21717;-53
2022/03/13 03:41:54;;;;;;;9.73;5.75;;;;;;;0.86;65.62;101439.77;1757828;79;21030;-52
2022/03/13 03:44:22;;;;;;;10.40;5.95;;;;;;;0.84;65.73;101444.14;1765631;79;21038;-52
2022/03/13 03:46:50;;;;;;;12.28;6.30;;;;;;;0.86;65.85;101450.58;1746889;79;21188;-53
2022/03/13 03:49:17;;;;;;;13.03;6.22;;;;;;;0.89;65.81;101455.67;1748477;79;20996;-53
2022/03/13 03:51:45;;;;;;;11.20;6.50;;;;;;;0.90;65.76;101447.87;1746355;80;21090;-52
2022/03/13 03:54:12;;;;;;;16.20;7.30;;;;;;;0.91;65.58;101447.45;1752370;79;21106;-52
2022/03/13 03:58:34;;;;;;;18.27;10.18;;;;;;;0.88;65.76;101441.03;1780908;78;22548;-52
2022/03/13 04:01:02;;;;;;;21.65;10.98;;;;;;;0.84;65.75;101444.56;1749823;81;21107;-52
2022/03/13 04:03:30;;;;;;;28.07;13.62;;;;;;;0.82;65.83;101448.48;1747285;81;23072;-52
2022/03/13 04:05:57;;;;;;;21.15;12.25;;;;;;;0.83;65.87;101448.05;1746668;80;20929;-52
2022/03/13 04:08:23;;;;;;;31.70;14.55;;;;;;;0.81;66.07;101451.98;1753262;81;21043;-53
2022/03/13 04:10:52;;;;;;;20.85;12.58;;;;;;;0.83;66.08;101459.27;1745870;80;21560;-52
2022/03/13 04:13:19;;;;;;;28.07;13.08;;;;;;;0.84;66.16;101458.81;1746781;80;21019;-52
2022/03/13 04:15:46;;;;;;;25.57;12.73;;;;;;;0.83;66.32;101458.42;1746607;80;21225;-53
2022/03/13 04:18:15;;;;;;;23.42;12.33;;;;;;;0.84;66.55;101460.98;1752172;81;20965;-52
2022/03/13 04:20:43;;;;;;;19.52;11.05;;;;;;;0.81;66.57;101464.94;1753034;80;20955;-53
2022/03/13 04:23:11;;;;;;;23.15;12.63;;;;;;;0.81;66.67;101471.41;1752866;81;21084;-53
2022/03/13 04:25:38;;;;;;;23.05;11.75;;;;;;;0.81;66.77;101466.23;1742881;80;21060;-52
2022/03/13 04:28:09;;;;;;;26.87;11.95;;;;;;;0.82;67.07;101466.62;1715566;83;21854;-52
2022/03/13 04:30:34;;;;;;;18.70;9.53;;;;;;;0.83;67.13;101474.81;1702369;83;21524;-52
2022/03/13 04:33:01;;;;;;;16.65;8.33;;;;;;;0.84;67.28;101469.17;1693950;83;21102;-53
2022/03/13 04:35:28;;;;;;;14.18;8.10;;;;;;;0.85;67.08;101476.92;1698840;83;21552;-52
2022/03/13 04:37:55;;;;;;;12.95;8.13;;;;;;;0.83;67.12;101478.70;1697137;84;21229;-52
2022/03/13 04:40:22;;;;;;;11.43;7.37;;;;;;;0.85;67.11;101485.14;1698591;82;21169;-52
2022/03/13 04:42:48;;;;;;;19.62;9.43;;;;;;;0.84;67.36;101485.59;1701764;84;21138;-52
2022/03/13 04:45:15;;;;;;;12.90;7.42;;;;;;;0.86;67.16;101488.16;1696768;83;21074;-53
2022/03/13 04:47:42;;;;;;;11.28;6.05;;;;;;;0.86;67.12;101498.07;1699412;84;21085;-52
2022/03/13 04:50:09;;;;;;;14.38;6.85;;;;;;;0.87;67.08;101501.50;1695871;82;21082;-52
2022/03/13 04:52:38;;;;;;;15.38;7.30;;;;;;;0.87;67.06;101505.39;1703721;83;21099;-52
2022/03/13 04:55:06;;;;;;;12.95;7.17;;;;;;;0.82;67.09;101508.08;1697145;82;21051;-52
2022/03/13 04:57:33;;;;;;;13.20;7.40;;;;;;;0.82;67.21;101509.38;1694200;83;21165;-53
2022/03/13 04:59:59;;;;;;;12.70;6.85;;;;;;;0.82;67.15;101512.41;1673407;84;21070;-53
2022/03/13 05:02:26;;;;;;;14.10;7.08;;;;;;;0.83;67.23;101512.38;1669529;85;21126;-52
2022/03/13 05:04:54;;;;;;;12.35;6.40;;;;;;;0.85;67.24;101522.27;1669077;84;21128;-52
2022/03/13 05:07:22;;;;;;;12.23;6.83;;;;;;;0.87;67.10;101516.60;1666507;84;21092;-52
2022/03/13 05:09:49;;;;;;;16.10;7.35;;;;;;;0.89;67.02;101517.45;1707672;82;21065;-52
2022/03/13 05:12:16;;;;;;;15.65;6.75;;;;;;;0.92;66.75;101519.09;1707329;83;21095;-52
2022/03/13 05:14:45;;;;;;;10.18;5.55;;;;;;;0.93;66.59;101529.44;1700620;82;21094;-52
2022/03/13 05:17:11;;;;;;;11.10;6.42;;;;;;;0.96;66.12;101527.66;1705348;83;21539;-52
2022/03/13 05:19:38;;;;;;;10.38;6.03;;;;;;;0.93;65.94;101532.48;1702791;82;21089;-53
2022/03/13 05:22:05;;;;;;;12.05;7.08;;;;;;;0.92;66.08;101538.12;1707290;83;21086;-51
2022/03/13 05:24:32;;;;;;;14.15;6.42;;;;;;;0.93;66.04;101544.98;1702915;82;21591;-52
2022/03/13 05:26:59;;;;;;;14.40;6.37;;;;;;;0.92;65.96;101542.42;1704400;82;21066;-52
2022/03/13 05:29:25;;;;;;;12.45;5.70;;;;;;;0.95;65.79;101548.00;1702124;82;21137;-52
2022/03/13 05:31:52;;;;;;;13.70;6.67;;;;;;;0.96;65.52;101552.28;1703715;83;21079;-52
2022/03/13 05:34:19;;;;;;;14.05;6.58;;;;;;;0.98;65.22;101551.38;1705581;82;21043;-52
2022/03/13 05:36:46;;;;;;;10.70;6.20;;;;;;;0.98;65.16;101557.86;1707393;82;21619;-53
2022/03/13 05:39:13;;;;;;;12.70;6.33;;;;;;;1.03;65.00;101566.84;1700355;82;21102;-54
2022/03/13 05:41:40;;;;;;;12.55;6.65;;;;;;;1.01;64.88;101567.29;1690668;83;21799;-53
2022/03/13 05:44:12;;;;;;;11.20;5.80;;;;;;;0.96;64.85;101567.41;1703179;83;21149;-52
2022/03/13 05:46:38;;;;;;;10.55;5.58;;;;;;;0.96;64.76;101568.70;1707565;83;21011;-52
2022/03/13 05:49:05;;;;;;;10.23;5.87;;;;;;;0.97;64.68;101573.44;1709451;83;21035;-52
2022/03/13 05:51:35;;;;;;;9.55;6.12;;;;;;;0.95;64.65;101576.51;1699279;83;21019;-52
2022/03/13 05:54:03;;;;;;;14.40;7.10;;;;;;;0.93;64.58;101592.09;1700383;83;21081;-52
2022/03/13 05:56:32;;;;;;;12.70;5.80;;;;;;;0.95;64.64;101598.54;1705301;82;21047;-53
2022/03/13 05:58:58;;;;;;;9.90;5.28;;;;;;;0.96;64.62;101598.52;1739028;81;21110;-53
2022/03/13 06:01:25;;;;;;;12.33;6.33;;;;;;;0.97;64.54;101605.38;1734799;81;21039;-53
2022/03/13 06:03:52;;;;;;;10.32;5.53;;;;;;;0.99;64.39;101610.08;1738288;80;21067;-54
2022/03/13 06:06:20;;;;;;;12.93;5.90;;;;;;;0.99;64.18;101606.65;1736325;81;21238;-53
2022/03/13 06:08:49;;;;;;;12.10;5.87;;;;;;;0.98;64.10;101611.44;1729290;80;21528;-53
2022/03/13 06:11:16;;;;;;;10.95;5.53;;;;;;;0.98;64.06;101614.03;1732761;80;21042;-53
2022/03/13 06:13:43;;;;;;;11.00;6.30;;;;;;;0.99;64.17;101620.91;1734519;82;21732;-54
2022/03/13 06:16:09;;;;;;;10.63;5.67;;;;;;;0.97;64.07;101621.38;1738098;80;21031;-53
2022/03/13 06:18:37;;;;;;;10.60;5.22;;;;;;;1.00;63.98;101622.17;1732755;81;21265;-53
2022/03/13 06:21:05;;;;;;;12.18;6.17;;;;;;;1.02;64.11;101628.62;1738491;81;21140;-53
2022/03/13 06:23:32;;;;;;;10.40;5.60;;;;;;;1.04;64.05;101631.61;1736776;81;21035;-53
2022/03/13 06:25:59;;;;;;;11.53;5.90;;;;;;;1.06;63.93;101634.14;1738049;82;21081;-53
2022/03/13 06:28:27;;;;;;;10.35;5.92;;;;;;;1.07;63.89;101635.86;1741569;81;21029;-54
2022/03/13 06:30:55;;;;;;;9.10;5.72;;;;;;;1.05;63.98;101636.34;1739431;82;21114;-54
2022/03/13 06:33:22;;;;;;;10.15;5.60;;;;;;;1.04;63.94;101647.16;1738734;80;21118;-54
2022/03/13 06:35:49;;;;;;;11.15;5.05;;;;;;;0.97;64.03;101653.33;1742199;82;21456;-53
2022/03/13 06:38:15;;;;;;;9.85;5.05;;;;;;;0.97;64.03;101653.33;1738011;81;21066;-53
2022/03/13 06:40:42;;;;;;;9.73;5.25;;;;;;;0.91;64.21;101654.31;1741365;81;21044;-53
2022/03/13 06:43:09;;;;;;;12.88;6.33;;;;;;;0.83;64.46;101656.20;1741116;81;21151;-54
2022/03/13 06:45:35;;;;;;;10.63;6.10;;;;;;;0.87;64.56;101657.83;1742502;81;21573;-54
2022/03/13 06:48:04;;;;;;;9.73;5.42;;;;;;;0.86;64.35;101656.14;1739549;80;21055;-54
2022/03/13 06:50:31;;;;;;;13.85;5.83;;;;;;;0.87;64.41;101664.77;1741499;81;21019;-54
2022/03/13 06:52:58;;;;;;;13.48;6.55;;;;;;;0.88;64.57;101662.14;1739202;80;21076;-53
2022/03/13 06:55:25;;;;;;;12.03;6.40;;;;;;;0.92;64.28;101673.30;1741035;82;21048;-53
2022/03/13 06:57:52;;;;;;;11.45;6.45;;;;;;;0.92;64.25;101672.88;1738161;81;21025;-54
2022/03/13 07:00:20;;;;;;;12.20;6.17;;;;;;;0.93;64.09;101677.16;1705878;82;21081;-53
2022/03/13 07:02:46;;;;;;;13.32;5.97;;;;;;;0.91;64.02;101685.41;1703290;82;21093;-53
2022/03/13 07:05:15;;;;;;;12.60;7.00;;;;;;;0.89;64.38;101678.12;1737627;82;21082;-54
2022/03/13 07:07:42;;;;;;;11.03;5.97;;;;;;;0.93;64.25;101684.94;1736799;80;21141;-54
2022/03/13 07:10:12;;;;;;;9.70;5.92;;;;;;;0.93;64.23;101682.80;1714091;83;21034;-53
2022/03/13 07:12:44;;;;;;;10.45;6.00;;;;;;;0.95;64.26;101685.36;1718152;82;21081;-54
2022/03/13 07:15:13;;;;;;;12.58;6.55;;;;;;;0.98;64.33;101698.27;1699183;82;21058;-51
2022/03/13 07:17:41;;;;;;;10.75;5.55;;;;;;;1.02;64.28;101689.08;1739537;81;21023;-52
2022/03/13 07:20:08;;;;;;;12.25;6.15;;;;;;;1.06;63.97;101701.54;1705480;83;21913;-52
2022/03/13 07:22:35;;;;;;;10.63;6.00;;;;;;;1.10;63.37;101699.32;1707004;82;21093;-52
2022/03/13 07:25:02;;;;;;;11.03;5.75;;;;;;;1.04;63.23;101699.00;1707996;82;21043;-54
2022/03/13 07:27:30;;;;;;;11.33;6.05;;;;;;;1.00;63.49;101705.11;1699985;82;21603;-53
2022/03/13 07:29:57;;;;;;;9.95;5.37;;;;;;;0.97;63.70;101714.69;1746534;81;20996;-53
2022/03/13 07:32:24;;;;;;;8.50;4.55;;;;;;;0.97;63.70;101715.98;1739691;81;21856;-53
2022/03/13 07:34:50;;;;;;;9.25;4.72;;;;;;;0.96;63.40;101715.14;1742858;80;21051;-53
2022/03/13 07:37:17;;;;;;;10.80;5.17;;;;;;;0.95;62.21;101720.35;1738607;80;21548;-53
2022/03/13 07:39:47;;;;;;;9.05;4.83;;;;;;;0.95;62.21;101720.35;1699018;82;21007;-52
2022/03/13 07:42:12;;;;;;;9.13;4.72;;;;;;;0.96;62.46;101730.69;1708804;82;21154;-52
2022/03/13 07:44:39;;;;;;;8.58;4.47;;;;;;;1.02;62.26;101726.67;1746613;81;21877;-53
2022/03/13 07:47:06;;;;;;;15.53;4.78;;;;;;;1.02;62.26;101726.67;1743626;80;21043;-54
2022/03/13 07:49:32;;;;;;;7.83;4.12;;;;;;;1.01;62.42;101726.28;1744003;80;21040;-53
2022/03/13 07:51:59;;;;;;;8.18;4.60;;;;;;;1.05;62.11;101727.06;1748353;80;21027;-52
2022/03/13 07:54:26;;;;;;;9.83;4.42;;;;;;;1.10;61.70;101734.31;1740788;80;22496;-52
2022/03/13 07:56:53;;;;;;;12.60;4.97;;;;;;;1.13;61.40;101735.56;1686361;82;21241;-53
2022/03/13 07:59:19;;;;;;;10.30;4.70;;;;;;;1.17;61.04;101733.76;1753431;81;21958;-53
2022/03/13 08:01:47;;;;;;;8.88;4.78;;;;;;;1.15;61.17;101738.13;1759726;81;20998;-53
2022/03/13 08:04:14;;;;;;;9.60;5.22;;;;;;;1.15;61.54;101736.83;1759023;81;21056;-53
2022/03/13 08:06:41;;;;;;;9.63;4.78;;;;;;;1.19;61.81;101745.79;1745064;81;21026;-54
2022/03/13 08:09:08;;;;;;;9.60;5.15;;;;;;;1.24;62.00;101749.15;1709933;82;21100;-53
2022/03/13 08:11:36;;;;;;;8.23;4.58;;;;;;;1.33;61.57;101745.55;1714455;83;21094;-53
2022/03/13 08:14:04;;;;;;;8.43;4.42;;;;;;;1.39;61.34;101745.41;1715335;82;21097;-53
2022/03/13 08:16:31;;;;;;;9.05;4.70;;;;;;;1.44;60.75;101751.36;1709860;82;21086;-53
2022/03/13 08:18:58;;;;;;;9.30;5.08;;;;;;;1.49;60.37;101753.86;1708294;83;21094;-54
2022/03/13 08:21:25;;;;;;;8.55;4.10;;;;;;;1.50;60.01;101754.28;1694128;83;21529;-52
2022/03/13 08:23:51;;;;;;;8.53;4.17;;;;;;;1.51;60.19;101756.43;1712103;82;21129;-53
2022/03/13 08:26:18;;;;;;;10.75;5.30;;;;;;;1.53;60.19;101759.42;1712193;82;21075;-53
2022/03/13 08:28:45;;;;;;;9.93;4.37;;;;;;;1.55;60.05;101760.69;1710164;83;21126;-53
2022/03/13 08:31:12;;;;;;;9.50;4.75;;;;;;;1.55;59.88;101756.34;1705159;83;21658;-53
2022/03/13 08:33:39;;;;;;;8.95;4.25;;;;;;;1.56;59.93;101758.03;1677884;83;21248;-54
2022/03/13 08:36:07;;;;;;;8.98;4.10;;;;;;;1.58;59.58;101761.89;1719190;82;21104;-53
2022/03/13 08:38:34;;;;;;;9.13;4.42;;;;;;;1.54;59.70;101761.11;1709879;82;21022;-53
2022/03/13 08:41:00;;;;;;;8.00;4.10;;;;;;;1.53;59.80;101759.84;1694529;82;21131;-53
2022/03/13 08:43:27;;;;;;;9.75;4.65;;;;;;;1.54;59.78;101766.30;1687947;83;21046;-53
2022/03/13 08:45:54;;;;;;;8.43;4.90;;;;;;;1.59;60.04;101768.80;1711299;82;21956;-53
2022/03/13 08:48:22;;;;;;;11.28;4.62;;;;;;;1.61;60.16;101776.95;1714989;82;21018;-52
2022/03/13 08:50:50;;;;;;;9.58;5.10;;;;;;;1.65;60.12;101776.02;1702094;82;21507;-52
2022/03/13 08:53:17;;;;;;;9.68;5.58;;;;;;;1.65;60.17;101779.07;1703485;82;21082;-53
2022/03/13 08:55:45;;;;;;;9.58;4.80;;;;;;;1.70;60.21;101785.44;1715481;82;21112;-51
2022/03/13 08:58:12;;;;;;;9.73;5.45;;;;;;;1.72;60.33;101784.98;1713356;82;22148;-52
2022/03/13 09:00:38;;;;;;;11.15;5.60;;;;;;;1.79;60.30;101792.59;1715549;82;21070;-53
2022/03/13 09:03:05;;;;;;;12.07;6.40;;;;;;;1.80;60.19;101792.14;1744310;81;21039;-53
2022/03/13 09:05:32;;;;;;;13.20;5.70;;;;;;;1.86;60.20;101794.62;1733358;81;21567;-52
2022/03/13 09:07:59;;;;;;;10.88;5.95;;;;;;;1.89;60.17;101799.75;1746184;80;21078;-52
2022/03/13 09:10:26;;;;;;;12.63;6.33;;;;;;;1.92;60.17;101793.66;1744542;80;21834;-52
2022/03/13 09:12:53;;;;;;;11.25;5.28;;;;;;;1.98;60.67;101799.55;1749937;81;21090;-53
2022/03/13 09:15:20;;;;;;;11.05;5.83;;;;;;;2.00;60.12;101796.50;1744989;81;21094;-52
2022/03/13 09:17:53;;;;;;;10.65;6.05;;;;;;;1.99;59.85;101799.13;1756461;79;20992;-53
2022/03/13 09:20:17;;;;;;;11.35;5.45;;;;;;;2.00;59.74;101799.09;1752378;80;21015;-52
2022/03/13 09:22:44;;;;;;;10.40;5.67;;;;;;;2.00;59.97;101806.87;1750510;81;22838;-57
2022/03/13 09:25:11;;;;;;;10.30;5.62;;;;;;;2.11;59.87;101805.79;1746037;80;21090;-54
2022/03/13 09:27:37;;;;;;;9.48;5.35;;;;;;;2.18;59.54;101810.80;1756329;81;21117;-54
2022/03/13 09:30:06;;;;;;;10.00;5.28;;;;;;;2.25;59.47;101815.41;1738189;81;20996;-55
2022/03/13 09:32:34;;;;;;;12.30;6.22;;;;;;;2.32;59.42;101814.41;1755232;80;21008;-56
2022/03/13 09:35:04;;;;;;;7.60;4.08;;;;;;;2.36;59.01;101811.29;1745157;80;24500;-54
2022/03/13 09:37:31;;;;;;;10.63;5.62;;;;;;;2.43;58.92;101814.60;1749589;80;21042;-59
2022/03/13 09:39:58;;;;;;;10.50;5.62;;;;;;;2.46;58.72;101809.34;1738314;81;21016;-55
2022/03/13 09:42:25;;;;;;;11.15;5.33;;;;;;;2.49;58.79;101814.44;1705695;82;21046;-54
2022/03/13 09:44:53;;;;;;;10.95;5.47;;;;;;;2.52;58.45;101814.38;1749645;81;21615;-54
2022/03/13 09:47:20;;;;;;;10.10;6.03;;;;;;;2.53;58.10;101816.94;1755450;81;21093;-55
2022/03/13 09:49:48;;;;;;;9.10;4.85;;;;;;;2.54;57.99;101817.78;1744718;80;21500;-55
2022/03/13 09:52:15;;;;;;;11.63;5.65;;;;;;;2.53;57.92;101825.19;1745114;81;21035;-55
2022/03/13 09:54:41;;;;;;;11.83;5.62;;;;;;;2.56;58.21;101823.82;1732565;81;21028;-54
2022/03/13 09:57:08;;;;;;;10.88;5.58;;;;;;;2.65;57.88;101829.23;1738624;80;21047;-53
2022/03/13 09:59:35;;;;;;;9.93;5.30;;;;;;;2.70;57.54;101829.52;1735724;81;21149;-55
2022/03/13 10:02:06;;;;;;;13.93;4.95;;;;;;;2.71;57.33;101839.50;1723287;82;21580;-54
2022/03/13 10:04:35;;;;;;;10.38;4.85;;;;;;;2.75;57.41;101841.97;1691307;82;21074;-54
2022/03/13 10:07:10;;;;;;;11.35;5.30;;;;;;;2.81;56.78;101836.20;1706357;83;21058;-55
2022/03/13 10:09:38;;;;;;;8.88;4.85;;;;;;;2.89;56.83;101844.68;1688379;82;21579;-54
2022/03/13 10:12:11;;;;;;;8.33;4.62;;;;;;;3.01;56.68;101842.22;1691502;84;21217;-54
2022/03/13 10:15:03;;;;;;;8.65;4.47;;;;;;;3.15;55.95;101840.14;1715990;82;21043;-54
2022/03/13 10:17:33;;;;;;;9.63;4.53;;;;;;;3.26;55.10;101837.25;1713828;81;21106;-54
2022/03/13 10:20:19;;;;;;;9.25;4.42;;;;;;;3.36;54.93;101845.21;1658579;83;21520;-54
2022/03/13 10:22:57;;;;;;;7.60;3.60;;;;;;;3.47;54.39;101837.14;1720261;81;21036;-54
2022/03/13 10:25:36;;;;;;;10.08;4.67;;;;;;;3.49;54.01;101843.98;1730817;81;21922;-55
2022/03/13 10:28:26;;;;;;;8.08;4.25;;;;;;;3.50;53.93;101843.56;1750768;81;21612;-55
2022/03/13 10:31:05;;;;;;;8.43;4.30;;;;;;;3.49;53.00;101840.09;1701357;82;21026;-53
2022/03/13 10:33:47;;;;;;;9.55;4.55;;;;;;;3.40;52.73;101840.34;1690337;84;21119;-55
2022/03/13 10:36:24;;;;;;;8.30;4.10;;;;;;;3.32;52.75;101841.84;1688526;83;21080;-55
2022/03/13 10:38:51;;;;;;;7.55;4.08;;;;;;;3.23;52.32;101842.52;1709822;81;21246;-54
2022/03/13 10:41:17;;;;;;;12.33;3.85;;;;;;;3.07;52.40;101842.92;1700872;83;21096;-55
2022/03/13 10:43:56;;;;;;;7.50;4.15;;;;;;;2.93;52.57;101848.93;1708699;82;21039;-55
2022/03/13 10:46:29;;;;;;;10.48;4.90;;;;;;;2.83;53.44;101852.20;1705176;83;21531;-55
2022/03/13 10:48:57;;;;;;;9.55;4.75;;;;;;;2.74;54.00;101851.97;1696959;82;21095;-55
2022/03/13 10:51:48;;;;;;;7.53;4.55;;;;;;;2.67;54.44;101854.28;1712695;82;22770;-56
2022/03/13 10:54:37;;;;;;;11.65;4.75;;;;;;;2.63;54.50;101856.56;1697095;83;21047;-54
2022/03/13 10:57:11;;;;;;;9.43;5.30;;;;;;;2.51;54.99;101859.45;1706724;83;21077;-55
2022/03/13 10:59:40;;;;;;;10.38;5.10;;;;;;;2.41;55.47;101867.89;1704257;82;21533;-54
2022/03/13 11:02:18;;;;;;;8.50;4.12;;;;;;;2.42;55.78;101861.78;1711411;83;21117;-54
2022/03/13 11:04:52;;;;;;;10.72;4.83;;;;;;;2.39;55.79;101865.33;1705900;83;21265;-53
2022/03/13 11:07:21;;;;;;;8.35;4.80;;;;;;;2.39;56.04;101861.88;1696792;82;21265;-54
2022/03/13 11:09:49;;;;;;;11.33;4.75;;;;;;;2.38;56.15;101869.25;1704082;83;21056;-53
2022/03/13 11:12:19;;;;;;;8.23;4.15;;;;;;;2.35;55.59;101870.16;1701947;83;21106;-54
2022/03/13 11:14:51;;;;;;;9.18;4.08;;;;;;;2.32;55.58;101870.67;1705513;83;21055;-54
2022/03/13 11:17:20;;;;;;;9.73;4.55;;;;;;;2.29;55.79;101866.88;1695794;84;21262;-54
2022/03/13 11:19:49;;;;;;;10.18;4.12;;;;;;;2.25;55.97;101873.84;1699544;84;21064;-54
2022/03/13 11:22:20;;;;;;;10.23;4.45;;;;;;;2.26;55.90;101878.63;1691922;84;21020;-54
2022/03/13 11:24:53;;;;;;;9.68;4.85;;;;;;;2.18;55.84;101874.88;1692303;84;21020;-54
2022/03/13 11:27:20;;;;;;;8.28;4.65;;;;;;;2.15;55.94;101874.94;1689515;83;21110;-54
2022/03/13 11:29:53;;;;;;;8.83;4.58;;;;;;;2.11;56.17;101879.80;1696157;84;21111;-54
2022/03/13 11:32:46;;;;;;;7.33;4.20;;;;;;;2.13;56.35;101878.86;1687247;84;21640;-54